createdAt,value
2022-09-17T00:00:38.134Z,91295.13
2022-09-17T00:03:10.589Z,91299.25
2022-09-17T00:05:43.573Z,91300.41
2022-09-17T00:08:16.059Z,91290.19
2022-09-17T00:10:48.577Z,91292.13
2022-09-17T00:13:21.838Z,91282.31
2022-09-17T00:15:54.145Z,91279.25
2022-09-17T00:18:26.555Z,91273.25
2022-09-17T00:20:59.360Z,91272.84
2022-09-17T00:23:31.681Z,91271.00
2022-09-17T00:26:05.978Z,91271.03
2022-09-17T00:28:39.091Z,91268.03
2022-09-17T00:31:11.467Z,91280.16
2022-09-17T00:33:43.759Z,91288.09
2022-09-17T00:36:16.486Z,91281.72
2022-09-17T00:38:49.996Z,91270.06
2022-09-17T00:41:23.440Z,91283.00
2022-09-17T00:43:57.742Z,91290.66
2022-09-17T00:46:34.913Z,91296.41
2022-09-17T00:49:14.573Z,91292.66
2022-09-17T00:51:55.965Z,91299.09
2022-09-17T00:54:30.986Z,91302.56
2022-09-17T00:57:03.561Z,91302.97
2022-09-17T00:59:37.038Z,91296.97
2022-09-17T01:02:09.906Z,91295.91
2022-09-17T01:04:42.631Z,91294.78
2022-09-17T01:07:28.876Z,91291.88
2022-09-17T01:10:09.445Z,91271.44
2022-09-17T01:12:59.110Z,91277.50
2022-09-17T01:15:41.465Z,91271.84
2022-09-17T01:18:31.953Z,91276.78
2022-09-17T01:21:31.985Z,91276.41
2022-09-17T01:24:44.829Z,91280.94
2022-09-17T01:27:45.796Z,91281.34
2022-09-17T01:30:32.743Z,91283.97
2022-09-17T01:33:10.875Z,91293.06
2022-09-17T01:35:50.794Z,91284.75
2022-09-17T01:38:27.878Z,91269.59
2022-09-17T01:41:07.105Z,91282.47
2022-09-17T01:43:46.392Z,91268.84
2022-09-17T01:46:23.204Z,91254.47
2022-09-17T01:49:00.378Z,91257.13
2022-09-17T01:51:38.642Z,91256.75
2022-09-17T01:54:18.159Z,91266.19
2022-09-17T01:56:55.805Z,91263.19
2022-09-17T01:59:32.969Z,91272.63
2022-09-17T02:02:11.318Z,91274.16
2022-09-17T02:04:48.539Z,91274.91
2022-09-17T02:07:23.188Z,91277.19
2022-09-17T02:09:59.462Z,91257.88
2022-09-17T02:12:35.561Z,91236.28
2022-09-17T02:15:12.489Z,91200.34
2022-09-17T02:17:49.113Z,91204.50
2022-09-17T02:20:29.626Z,91194.28
2022-09-17T02:23:07.962Z,91196.91
2022-09-17T02:25:44.021Z,91199.56
2022-09-17T02:28:24.718Z,91195.41
2022-09-17T02:30:57.120Z,91183.31
2022-09-17T02:33:33.316Z,91176.50
2022-09-17T02:36:06.336Z,91187.47
2022-09-17T02:38:43.492Z,91171.19
2022-09-17T02:41:19.673Z,91172.34
2022-09-17T02:44:00.715Z,91163.25
2022-09-17T02:46:57.802Z,91164.78
2022-09-17T02:49:49.443Z,91185.19
2022-09-17T02:52:32.158Z,91146.25
2022-09-17T02:55:14.773Z,91127.72
2022-09-17T02:57:54.123Z,91111.47
2022-09-17T03:00:27.529Z,91113.69
2022-09-17T03:03:03.882Z,91117.88
2022-09-17T03:05:39.331Z,91099.72
2022-09-17T03:08:13.675Z,91098.94
2022-09-17T03:10:48.215Z,91099.31
2022-09-17T03:13:20.599Z,91136.00
2022-09-17T03:15:52.921Z,91138.66
2022-09-17T03:18:25.250Z,91134.50
2022-09-17T03:20:58.222Z,91136.03
2022-09-17T03:23:30.559Z,91136.38
2022-09-17T03:26:02.992Z,91141.69
2022-09-17T03:28:35.262Z,91140.56
2022-09-17T03:31:07.679Z,91142.06
2022-09-17T03:33:40.039Z,91134.91
2022-09-17T03:36:13.001Z,91123.91
2022-09-17T03:38:45.342Z,91119.03
2022-09-17T03:41:17.636Z,91102.75
2022-09-17T03:43:50.152Z,91102.34
2022-09-17T03:46:22.466Z,91115.56
2022-09-17T03:48:54.854Z,91105.34
2022-09-17T03:51:27.999Z,91106.09
2022-09-17T03:54:00.394Z,91119.34
2022-09-17T03:56:33.047Z,91135.22
2022-09-17T03:59:05.342Z,91145.38
2022-09-17T04:01:38.075Z,91142.38
2022-09-17T04:04:10.448Z,91148.44
2022-09-17T04:06:43.383Z,91156.75
2022-09-17T04:09:16.083Z,91149.94
2022-09-17T04:11:48.408Z,91153.38
2022-09-17T04:14:20.789Z,91156.00
2022-09-17T04:16:53.104Z,91186.25
2022-09-17T04:19:25.463Z,91202.50
2022-09-17T04:21:58.393Z,91220.56
2022-09-17T04:24:30.652Z,91234.53
2022-09-17T04:27:03.103Z,91252.69
2022-09-17T04:29:35.399Z,91271.41
2022-09-17T04:32:08.143Z,91279.88
2022-09-17T04:34:40.572Z,91295.88
2022-09-17T04:37:13.543Z,91320.81
2022-09-17T04:39:45.841Z,91316.88
2022-09-17T04:42:18.324Z,91311.06
2022-09-17T04:44:50.730Z,91305.81
2022-09-17T04:47:23.007Z,91337.06
2022-09-17T04:49:55.337Z,91354.06
2022-09-17T04:52:30.997Z,91369.81
2022-09-17T04:55:04.252Z,91381.94
2022-09-17T04:57:36.567Z,91374.19
2022-09-17T05:00:12.912Z,91362.50
2022-09-17T05:02:46.291Z,91334.25
2022-09-17T05:05:19.384Z,91332.84
2022-09-17T05:07:52.618Z,91340.97
2022-09-17T05:10:25.694Z,91342.56
2022-09-17T05:12:57.947Z,91330.97
2022-09-17T05:15:30.249Z,91330.25
2022-09-17T05:18:03.482Z,91308.06
2022-09-17T05:20:35.789Z,91294.59
2022-09-17T05:23:08.737Z,91285.28
2022-09-17T05:25:41.034Z,91285.59
2022-09-17T05:28:13.310Z,91290.38
2022-09-17T05:30:45.543Z,91291.94
2022-09-17T05:33:18.822Z,91290.97
2022-09-17T05:35:51.288Z,91306.44
2022-09-17T05:38:24.246Z,91303.13
2022-09-17T05:40:56.683Z,91301.25
2022-09-17T05:43:28.992Z,91306.97
2022-09-17T05:46:02.467Z,91302.88
2022-09-17T05:48:34.792Z,91302.91
2022-09-17T05:51:07.102Z,91303.66
2022-09-17T05:53:40.071Z,91306.31
2022-09-17T05:56:12.340Z,91307.47
2022-09-17T05:58:44.670Z,91297.66
2022-09-17T06:01:16.957Z,91279.63
2022-09-17T06:03:49.391Z,91290.53
2022-09-17T06:06:21.731Z,91287.91
2022-09-17T06:08:54.735Z,91290.97
2022-09-17T06:11:27.795Z,91289.06
2022-09-17T06:14:00.908Z,91301.88
2022-09-17T06:16:33.258Z,91308.34
2022-09-17T06:19:05.545Z,91310.63
2022-09-17T06:21:37.836Z,91321.22
2022-09-17T06:24:10.977Z,91328.81
2022-09-17T06:26:43.244Z,91329.59
2022-09-17T06:29:15.674Z,91343.56
2022-09-17T06:31:48.399Z,91343.94
2022-09-17T06:34:20.771Z,91342.81
2022-09-17T06:36:53.034Z,91343.59
2022-09-17T06:39:25.997Z,91347.00
2022-09-17T06:41:58.688Z,91313.44
2022-09-17T06:44:33.731Z,91304.66
2022-09-17T06:47:07.250Z,91316.72
2022-09-17T06:49:39.588Z,91309.84
2022-09-17T06:52:11.864Z,91304.50
2022-09-17T06:54:44.846Z,91297.31
2022-09-17T06:57:17.262Z,91298.31
2022-09-17T06:59:50.149Z,91275.75
2022-09-17T07:02:22.568Z,91274.59
2022-09-17T07:04:54.913Z,91251.50
2022-09-17T07:07:28.460Z,91245.41
2022-09-17T07:10:01.632Z,91239.50
2022-09-17T07:12:33.968Z,91231.69
2022-09-17T07:15:07.209Z,91222.69
2022-09-17T07:17:39.886Z,91223.94
2022-09-17T07:20:12.733Z,91213.78
2022-09-17T07:22:45.105Z,91225.59
2022-09-17T07:25:18.156Z,91235.88
2022-09-17T07:27:50.565Z,91238.59
2022-09-17T07:30:23.060Z,91231.06
2022-09-17T07:32:55.374Z,91238.66
2022-09-17T07:35:27.829Z,91217.94
2022-09-17T07:38:00.149Z,91225.53
2022-09-17T07:40:33.162Z,91213.16
2022-09-17T07:43:06.407Z,91211.31
2022-09-17T07:45:38.700Z,91219.25
2022-09-17T07:48:11.119Z,91205.28
2022-09-17T07:50:43.414Z,91215.09
2022-09-17T07:53:16.100Z,91201.47
2022-09-17T07:55:52.631Z,91197.25
2022-09-17T07:58:30.190Z,91196.09
2022-09-17T08:01:03.904Z,91191.84
2022-09-17T08:03:36.496Z,91191.34
2022-09-17T08:06:10.371Z,91194.59
2022-09-17T08:08:42.837Z,91174.03
2022-09-17T08:11:32.402Z,91174.25
2022-09-17T08:14:11.976Z,91173.69
2022-09-17T08:16:45.730Z,91179.19
2022-09-17T08:19:18.604Z,91177.97
2022-09-17T08:21:51.461Z,91182.31
2022-09-17T08:24:23.740Z,91174.13
2022-09-17T08:26:56.708Z,91171.44
2022-09-17T08:29:33.182Z,91169.38
2022-09-17T08:32:07.371Z,91170.31
2022-09-17T08:34:39.611Z,91176.25
2022-09-17T08:37:11.949Z,91176.25
2022-09-17T08:39:44.325Z,91173.34
2022-09-17T08:42:25.239Z,91178.59
2022-09-17T08:45:00.850Z,91177.78
2022-09-17T08:47:36.024Z,91175.44
2022-09-17T08:50:15.022Z,91187.94
2022-09-17T08:53:22.759Z,91194.19
2022-09-17T08:56:01.475Z,91198.50
2022-09-17T08:58:56.006Z,91192.78
2022-09-17T09:01:34.988Z,91190.47
2022-09-17T09:04:34.135Z,91194.72
2022-09-17T09:07:08.899Z,91192.03
2022-09-17T09:09:49.258Z,91194.34
2022-09-17T09:12:26.825Z,91197.81
2022-09-17T09:15:03.022Z,91197.81
2022-09-17T09:17:42.260Z,91195.59
2022-09-17T09:20:19.576Z,91216.13
2022-09-17T09:22:52.633Z,91224.53
2022-09-17T09:25:30.667Z,91233.69
2022-09-17T09:28:20.595Z,91239.78
2022-09-17T09:31:03.945Z,91249.34
2022-09-17T09:33:39.125Z,91254.38
2022-09-17T09:36:14.935Z,91270.34
2022-09-17T09:38:53.070Z,91284.75
2022-09-17T09:41:31.343Z,91291.16
2022-09-17T09:44:09.115Z,91299.81
2022-09-17T09:46:55.781Z,91307.38
2022-09-17T09:49:40.699Z,91314.75
2022-09-17T09:52:26.199Z,91317.66
2022-09-17T09:55:11.814Z,91287.03
2022-09-17T09:57:46.811Z,91266.09
2022-09-17T10:00:26.167Z,91254.38
2022-09-17T10:03:04.415Z,91215.84
2022-09-17T10:05:36.935Z,91184.94
2022-09-17T10:08:13.293Z,91173.59
2022-09-17T10:11:00.278Z,91160.91
2022-09-17T10:13:34.991Z,91149.41
2022-09-17T10:16:18.231Z,91123.63
2022-09-17T10:19:12.972Z,91132.28
2022-09-17T10:21:45.481Z,91137.09
2022-09-17T10:24:25.294Z,91134.41
2022-09-17T10:27:01.543Z,91138.94
2022-09-17T10:29:34.197Z,91157.72
2022-09-17T10:32:07.872Z,91157.59
2022-09-17T10:34:43.031Z,91146.56
2022-09-17T10:37:32.527Z,91151.31
2022-09-17T10:40:24.210Z,91137.13
2022-09-17T10:43:26.777Z,91124.84
2022-09-17T10:46:00.644Z,91106.44
2022-09-17T10:48:37.715Z,91128.63
2022-09-17T10:51:20.461Z,91103.88
2022-09-17T10:54:40.806Z,91109.53
2022-09-17T10:57:21.469Z,91122.06
2022-09-17T11:00:04.220Z,91110.03
2022-09-17T11:03:14.884Z,91121.00
2022-09-17T11:06:12.280Z,91116.19
2022-09-17T11:09:00.645Z,91147.56
2022-09-17T11:11:47.934Z,91140.03
2022-09-17T11:14:40.054Z,91135.22
2022-09-17T11:17:21.889Z,91135.22
2022-09-17T11:20:01.475Z,91130.72
2022-09-17T11:22:47.762Z,91121.31
2022-09-17T11:25:36.034Z,91123.16
2022-09-17T11:28:36.338Z,91123.13
2022-09-17T11:31:24.225Z,91137.00
2022-09-17T11:34:19.066Z,91124.19
2022-09-17T11:36:58.579Z,91127.59
2022-09-17T11:39:32.834Z,91125.56
2022-09-17T11:42:12.151Z,91138.63
2022-09-17T11:44:47.783Z,91097.53
2022-09-17T11:47:24.861Z,91109.19
2022-09-17T11:50:02.035Z,91129.81
2022-09-17T11:52:38.467Z,91121.34
2022-09-17T11:55:20.182Z,91125.75
2022-09-17T11:58:00.015Z,91128.06
2022-09-17T12:00:37.571Z,91142.38
2022-09-17T12:03:18.638Z,91132.50
2022-09-17T12:05:55.015Z,91145.00
2022-09-17T12:08:37.450Z,91141.53
2022-09-17T12:11:14.233Z,91138.34
2022-09-17T12:13:50.834Z,91140.34
2022-09-17T12:16:26.368Z,91134.72
2022-09-17T12:19:04.845Z,91127.81
2022-09-17T12:21:42.281Z,91125.34
2022-09-17T12:24:24.069Z,91106.81
2022-09-17T12:27:12.791Z,91115.44
2022-09-17T12:30:10.898Z,91108.94
2022-09-17T12:32:57.131Z,91114.06
2022-09-17T12:36:10.072Z,91114.03
2022-09-17T12:39:02.783Z,91113.03
2022-09-17T12:41:45.712Z,91096.09
2022-09-17T12:44:46.219Z,91103.81
2022-09-17T12:47:40.483Z,91100.94
2022-09-17T12:50:20.020Z,91090.34
2022-09-17T12:53:10.341Z,91084.75
2022-09-17T12:56:02.158Z,91079.41
2022-09-17T12:58:56.351Z,91075.56
2022-09-17T13:01:35.982Z,91074.56
2022-09-17T13:04:38.191Z,91067.13
2022-09-17T13:07:39.328Z,91068.19
2022-09-17T13:10:32.848Z,91069.72
2022-09-17T13:13:16.720Z,91064.38
2022-09-17T13:15:57.810Z,91056.97
2022-09-17T13:18:41.416Z,91054.59
2022-09-17T13:21:23.634Z,91041.00
2022-09-17T13:23:56.342Z,91057.66
2022-09-17T13:26:38.870Z,91044.53
2022-09-17T13:29:13.099Z,91040.69
2022-09-17T13:31:49.331Z,91039.22
2022-09-17T13:34:30.367Z,91037.22
2022-09-17T13:37:04.048Z,91033.25
2022-09-17T13:39:39.896Z,91026.50
2022-09-17T13:42:19.650Z,91001.69
2022-09-17T13:45:02.265Z,90989.25
2022-09-17T13:47:38.850Z,90984.44
2022-09-17T13:50:26.112Z,90956.31
2022-09-17T13:53:06.337Z,90943.88
2022-09-17T13:55:41.968Z,90933.34
2022-09-17T13:58:26.850Z,90912.56
2022-09-17T14:01:01.028Z,90940.53
2022-09-17T14:03:53.076Z,90938.66
2022-09-17T14:06:50.771Z,90947.13
2022-09-17T14:09:49.748Z,90950.59
2022-09-17T14:12:51.526Z,90943.84
2022-09-17T14:15:55.633Z,90944.69
2022-09-17T14:18:36.476Z,90944.72
2022-09-17T14:21:18.215Z,90951.84
2022-09-17T14:23:56.135Z,90966.19
2022-09-17T14:26:59.804Z,90969.41
2022-09-17T14:30:04.350Z,90971.09
2022-09-17T14:32:42.208Z,90960.03
2022-09-17T14:35:20.303Z,90917.56
2022-09-17T14:37:56.995Z,90859.06
2022-09-17T14:40:32.066Z,90920.53
2022-09-17T14:43:05.208Z,90935.94
2022-09-17T14:45:42.343Z,90956.63
2022-09-17T14:48:28.790Z,90942.56
2022-09-17T14:51:31.560Z,90931.00
2022-09-17T14:54:20.944Z,90917.81
2022-09-17T14:56:59.090Z,90907.19
2022-09-17T14:59:49.066Z,90929.13
2022-09-17T15:02:35.510Z,90911.06
2022-09-17T15:05:27.531Z,90922.53
2022-09-17T15:08:15.927Z,90919.13
2022-09-17T15:10:51.718Z,90917.88
2022-09-17T15:13:27.478Z,90904.00
2022-09-17T15:16:04.183Z,90892.38
2022-09-17T15:18:40.115Z,90895.34
2022-09-17T15:21:24.318Z,90896.59
2022-09-17T15:24:04.903Z,90913.78
2022-09-17T15:26:41.304Z,90893.91
2022-09-17T15:29:14.486Z,90892.41
2022-09-17T15:31:47.672Z,90893.22
2022-09-17T15:34:20.049Z,90900.00
2022-09-17T15:37:05.293Z,90912.31
2022-09-17T15:39:40.079Z,90910.94
2022-09-17T15:42:21.871Z,90918.84
2022-09-17T15:45:07.494Z,90933.50
2022-09-17T15:47:54.228Z,90951.16
2022-09-17T15:50:28.594Z,90950.44
2022-09-17T15:53:14.489Z,90948.13
2022-09-17T15:55:59.610Z,90935.09
2022-09-17T15:58:37.443Z,90918.63
2022-09-17T16:01:50.791Z,90918.19
2022-09-17T16:04:30.374Z,90913.66
2022-09-17T16:07:26.678Z,90902.34
2022-09-17T16:09:58.963Z,90896.03
2022-09-17T16:12:31.356Z,90880.91
2022-09-17T16:15:05.250Z,90856.88
2022-09-17T16:17:45.080Z,90865.03
2022-09-17T16:20:21.274Z,90846.31
2022-09-17T16:22:54.144Z,90831.53
2022-09-17T16:25:28.554Z,90848.03
2022-09-17T16:28:03.409Z,90827.06
2022-09-17T16:30:36.051Z,90823.69
2022-09-17T16:33:11.429Z,90834.25
2022-09-17T16:35:44.509Z,90825.25
2022-09-17T16:38:16.822Z,90807.53
2022-09-17T16:40:51.027Z,90810.63
2022-09-17T16:43:23.274Z,90816.69
2022-09-17T16:45:59.467Z,90814.06
2022-09-17T16:48:32.500Z,90812.19
2022-09-17T16:51:08.169Z,90808.75
2022-09-17T16:53:40.746Z,90802.75
2022-09-17T16:56:14.991Z,90805.81
2022-09-17T16:58:47.611Z,90807.75
2022-09-17T17:01:20.106Z,90811.84
2022-09-17T17:03:53.540Z,90820.91
2022-09-17T17:06:26.674Z,90824.28
2022-09-17T17:09:00.350Z,90830.66
2022-09-17T17:11:32.687Z,90827.66
2022-09-17T17:14:05.447Z,90818.22
2022-09-17T17:16:40.156Z,90819.38
2022-09-17T17:19:12.508Z,90837.13
2022-09-17T17:21:47.307Z,90825.81
2022-09-17T17:24:19.836Z,90814.53
2022-09-17T17:26:52.138Z,90814.56
2022-09-17T17:29:24.478Z,90806.28
2022-09-17T17:31:56.753Z,90804.78
2022-09-17T17:34:30.286Z,90844.72
2022-09-17T17:37:03.269Z,90845.88
2022-09-17T17:39:35.613Z,90844.38
2022-09-17T17:42:08.180Z,90854.56
2022-09-17T17:44:40.830Z,90851.97
2022-09-17T17:47:13.191Z,90863.28
2022-09-17T17:49:45.479Z,90861.38
2022-09-17T17:52:18.419Z,90864.41
2022-09-17T17:54:50.792Z,90863.28
2022-09-17T17:57:23.050Z,90869.31
2022-09-17T17:59:55.332Z,90884.06
2022-09-17T18:02:27.764Z,90882.56
2022-09-17T18:05:04.183Z,90875.78
2022-09-17T18:07:37.523Z,90866.72
2022-09-17T18:10:10.126Z,90864.47
2022-09-17T18:12:49.390Z,90874.63
2022-09-17T18:15:21.738Z,90865.59
2022-09-17T18:17:54.089Z,90861.81
2022-09-17T18:20:26.442Z,90862.28
2022-09-17T18:22:59.401Z,90869.38
2022-09-17T18:25:31.850Z,90858.50
2022-09-17T18:28:04.141Z,90861.88
2022-09-17T18:30:37.212Z,90863.78
2022-09-17T18:33:09.541Z,90872.47
2022-09-17T18:35:41.966Z,90872.09
2022-09-17T18:38:15.698Z,90871.00
2022-09-17T18:40:48.035Z,90866.44
2022-09-17T18:43:20.475Z,90867.22
2022-09-17T18:45:54.707Z,90862.34
2022-09-17T18:48:27.459Z,90866.44
2022-09-17T18:51:01.204Z,90858.56
2022-09-17T18:53:35.800Z,90865.72
2022-09-17T18:56:15.289Z,90860.78
2022-09-17T18:58:48.194Z,90861.13
2022-09-17T19:01:22.326Z,90871.66
2022-09-17T19:03:55.546Z,90868.63
2022-09-17T19:06:28.107Z,90859.19
2022-09-17T19:09:02.982Z,90857.72
2022-09-17T19:11:35.556Z,90863.72
2022-09-17T19:14:09.585Z,90855.41
2022-09-17T19:16:41.897Z,90861.81
2022-09-17T19:19:14.190Z,90848.25
2022-09-17T19:21:48.862Z,90853.91
2022-09-17T19:24:21.936Z,90847.13
2022-09-17T19:26:54.292Z,90847.88
2022-09-17T19:29:26.896Z,90848.63
2022-09-17T19:31:59.249Z,90860.31
2022-09-17T19:34:31.585Z,90861.47
2022-09-17T19:37:04.018Z,90853.53
2022-09-17T19:39:37.070Z,90852.41
2022-09-17T19:42:09.715Z,90837.28
2022-09-17T19:44:42.110Z,90828.66
2022-09-17T19:47:14.420Z,90835.44
2022-09-17T19:49:48.604Z,90835.81
2022-09-17T19:52:21.178Z,90813.19
2022-09-17T19:54:54.364Z,90825.66
2022-09-17T19:57:26.749Z,90822.22
2022-09-17T19:59:59.095Z,90825.59
2022-09-17T20:02:31.393Z,90829.03
2022-09-17T20:05:04.358Z,90826.38
2022-09-17T20:07:36.663Z,90823.75
2022-09-17T20:10:09.985Z,90826.78
2022-09-17T20:12:42.334Z,90824.16
2022-09-17T20:15:14.818Z,90814.31
2022-09-17T20:17:47.245Z,90802.63
2022-09-17T20:20:19.561Z,90813.25
2022-09-17T20:22:51.880Z,90803.00
2022-09-17T20:25:25.083Z,90804.91
2022-09-17T20:27:57.482Z,90809.09
2022-09-17T20:30:29.834Z,90822.28
2022-09-17T20:33:02.167Z,90809.50
2022-09-17T20:35:35.075Z,90833.59
2022-09-17T20:41:05.343Z,90816.28
2022-09-17T20:43:39.651Z,90827.97
2022-09-17T20:46:12.879Z,90828.34
2022-09-17T20:48:45.391Z,90824.56
2022-09-17T20:51:19.786Z,90800.06
2022-09-17T20:53:52.324Z,90807.22
2022-09-17T20:56:27.206Z,90828.75
2022-09-17T20:59:07.659Z,90820.44
2022-09-17T21:01:43.806Z,90798.56
2022-09-17T21:04:21.085Z,90812.91
2022-09-17T21:06:54.538Z,90796.69
2022-09-17T21:09:26.866Z,90804.63
2022-09-17T21:11:59.831Z,90814.81
2022-09-17T21:14:32.124Z,90817.47
2022-09-17T21:17:05.524Z,90805.41
2022-09-17T21:19:37.804Z,90819.38
2022-09-17T21:22:10.105Z,90804.63
2022-09-17T21:24:42.389Z,90810.31
2022-09-17T21:27:15.312Z,90803.88
2022-09-17T21:29:47.643Z,90790.31
2022-09-17T21:32:19.974Z,90806.53
2022-09-17T21:34:52.229Z,90802.00
2022-09-17T21:37:25.450Z,90810.28
2022-09-17T21:39:57.971Z,90797.47
2022-09-17T21:42:32.243Z,90789.16
2022-09-17T21:45:05.762Z,90782.75
2022-09-17T21:47:38.102Z,90782.75
2022-09-17T21:50:10.395Z,90793.69
2022-09-17T21:52:42.674Z,90797.84
2022-09-17T21:55:15.068Z,90790.69
2022-09-17T21:57:48.064Z,90805.78
2022-09-17T22:00:23.426Z,90813.69
2022-09-17T22:02:55.977Z,90811.06
2022-09-17T22:05:28.387Z,90813.69
2022-09-17T22:08:00.733Z,90807.28
2022-09-17T22:10:33.002Z,90801.63
2022-09-17T22:13:05.993Z,90820.50
2022-09-17T22:15:38.509Z,90819.00
2022-09-17T22:18:13.015Z,90803.16
2022-09-17T22:20:45.474Z,90826.53
2022-09-17T22:23:17.782Z,90832.56
2022-09-17T22:26:00.310Z,90824.66
2022-09-17T22:28:33.874Z,90828.75
2022-09-17T22:31:09.017Z,90846.16
2022-09-17T22:33:43.273Z,90846.50
2022-09-17T22:36:17.216Z,90831.81
2022-09-17T22:38:50.811Z,90848.38
2022-09-17T22:41:25.086Z,90842.72
2022-09-17T22:44:00.543Z,90837.72
2022-09-17T22:46:35.232Z,90823.00
2022-09-17T22:49:09.768Z,90824.13
2022-09-17T22:51:43.020Z,90826.75
2022-09-17T22:54:17.050Z,90820.72
2022-09-17T22:56:49.452Z,90829.38
2022-09-17T22:59:22.359Z,90827.84
2022-09-17T23:01:54.696Z,90822.59
2022-09-17T23:04:27.155Z,90828.56
2022-09-17T23:06:59.453Z,90826.72
2022-09-17T23:09:31.791Z,90827.44
2022-09-17T23:12:04.398Z,90825.59
2022-09-17T23:14:37.347Z,90824.84
2022-09-17T23:17:09.699Z,90830.50
2022-09-17T23:19:42.016Z,90833.91
2022-09-17T23:22:14.365Z,90839.94
2022-09-17T23:24:46.892Z,90841.44
2022-09-17T23:27:19.231Z,90841.41
2022-09-17T23:29:52.187Z,90836.53
2022-09-17T23:32:24.489Z,90849.34
2022-09-17T23:34:56.992Z,90838.44
2022-09-17T23:37:29.380Z,90853.53
2022-09-17T23:40:01.939Z,90862.56
2022-09-17T23:42:35.249Z,90864.75
2022-09-17T23:45:08.938Z,90862.50
2022-09-17T23:47:41.206Z,90865.81
2022-09-17T23:50:13.607Z,90867.72
2022-09-17T23:52:46.007Z,90869.28
2022-09-17T23:55:19.468Z,90872.69
2022-09-17T23:57:51.764Z,90870.41
